Time;durP1;ratioP1;P1;durP2;ratioP2;P2;SDS_P1;SDS_P2;PMS_P1;PMS_P2;Temp;Humidity;BMP_temperature;BMP_pressure;BME280_temperature;BME280_humidity;BME280_pressure;Samples;Min_cycle;Max_cycle;Signal;HPM_P1;HPM_P2
2022/07/19 00:00:19;;;;;;;;;13.00;11.60;;;;;24.28;32.09;99932.09;5106420;28;9319;-77
2022/07/19 00:03:03;;;;;;;;;13.20;13.20;;;;;24.29;32.51;99929.34;5091619;28;8957;-76
2022/07/19 00:05:32;;;;;;;;;9.00;9.00;;;;;24.24;31.57;99933.19;5056772;28;8852;-75
2022/07/19 00:08:00;;;;;;;;;12.00;11.40;;;;;24.19;31.57;99930.75;5088452;28;8878;-77
2022/07/19 00:10:30;;;;;;;;;11.60;11.00;;;;;24.18;31.41;99925.50;5089753;28;9597;-78
2022/07/19 00:12:59;;;;;;;;;9.80;9.80;;;;;24.20;31.51;99928.97;5056414;28;8920;-77
2022/07/19 00:15:28;;;;;;;;;11.60;11.60;;;;;24.21;32.47;99920.00;5089553;28;10061;-76
2022/07/19 00:17:56;;;;;;;;;10.00;10.00;;;;;24.22;32.36;99927.94;5089513;28;8839;-77
2022/07/19 00:20:26;;;;;;;;;10.60;10.20;;;;;24.21;31.98;99920.88;5089548;28;8847;-76
2022/07/19 00:22:54;;;;;;;;;6.00;5.80;;;;;24.22;31.95;99919.09;5106676;28;8867;-76
2022/07/19 00:25:22;;;;;;;;;13.60;13.20;;;;;24.22;32.02;99922.59;5104802;28;8868;-77
2022/07/19 00:27:52;;;;;;;;;13.80;13.40;;;;;24.21;32.61;99928.00;5108868;28;8857;-75
2022/07/19 00:30:21;;;;;;;;;14.00;13.60;;;;;24.20;33.18;99923.63;5085900;28;8842;-79
2022/07/19 00:32:49;;;;;;;;;17.00;15.20;;;;;23.72;34.94;99921.50;5045362;28;8849;-77
2022/07/19 00:35:18;;;;;;;;;13.80;13.80;;;;;23.34;35.66;99924.19;5045770;28;8947;-76
2022/07/19 00:37:47;;;;;;;;;15.20;13.20;;;;;23.01;35.41;99931.94;5062420;28;9750;-78
2022/07/19 00:40:22;;;;;;;;;9.80;9.80;;;;;22.77;35.45;99921.44;5024441;28;8848;-77
2022/07/19 00:42:54;;;;;;;;;12.20;11.60;;;;;22.34;36.97;99922.47;5025803;28;8867;-76
2022/07/19 00:45:23;;;;;;;;;11.00;10.00;;;;;22.06;37.08;99928.97;5025854;28;9545;-76
2022/07/19 00:47:52;;;;;;;;;11.20;11.20;;;;;22.11;36.92;99924.28;5041896;28;8844;-76
2022/07/19 00:50:22;;;;;;;;;8.20;8.20;;;;;22.11;36.85;99928.75;5025519;28;8860;-76
2022/07/19 00:52:53;;;;;;;;;11.20;11.20;;;;;22.09;37.13;99931.47;5025423;28;8873;-76
2022/07/19 00:55:23;;;;;;;;;9.60;8.80;;;;;21.99;36.58;99916.84;5024913;28;8856;-77
2022/07/19 00:57:55;;;;;;;;;10.60;10.40;;;;;22.03;35.80;99915.78;4985554;28;8868;-76
2022/07/19 01:00:25;;;;;;;;;9.60;9.60;;;;;22.04;35.58;99921.97;5004102;28;8921;-77
2022/07/19 01:02:54;;;;;;;;;10.00;9.20;;;;;22.12;35.23;99925.19;5029111;28;8900;-77
2022/07/19 01:05:23;;;;;;;;;8.60;8.20;;;;;22.25;34.83;99917.53;5031919;28;8870;-75
2022/07/19 01:07:52;;;;;;;;;10.80;9.80;;;;;22.30;34.72;99926.22;5070240;28;8879;-76
2022/07/19 01:10:21;;;;;;;;;9.20;9.20;;;;;22.24;34.76;99923.78;5069456;28;9045;-77
2022/07/19 01:12:50;;;;;;;;;9.20;9.20;;;;;22.22;34.70;99925.66;5080727;28;8860;-78
2022/07/19 01:15:22;;;;;;;;;10.80;9.20;;;;;22.30;34.66;99923.56;5049496;28;8855;-77
2022/07/19 01:17:51;;;;;;;;;9.20;9.00;;;;;22.43;34.90;99921.22;5049033;28;8877;-75
2022/07/19 01:20:21;;;;;;;;;9.20;9.20;;;;;22.54;35.28;99927.78;5049418;28;8867;-76
2022/07/19 01:22:58;;;;;;;;;10.00;9.40;;;;;22.67;35.43;99929.94;5058065;28;8953;-78
2022/07/19 01:25:30;;;;;;;;;9.20;9.20;;;;;22.71;35.61;99927.06;5052137;28;8930;-77
2022/07/19 01:27:59;;;;;;;;;8.60;8.60;;;;;22.75;34.93;99920.66;5068860;28;8937;-76
2022/07/19 01:30:28;;;;;;;;;9.80;8.40;;;;;22.79;34.72;99929.38;5087820;28;8960;-77
2022/07/19 01:32:57;;;;;;;;;11.60;11.60;;;;;22.84;35.28;99923.84;5086845;28;8970;-76
2022/07/19 01:35:26;;;;;;;;;9.40;9.40;;;;;22.87;36.06;99927.25;5086528;28;8859;-76
2022/07/19 01:37:55;;;;;;;;;10.40;10.40;;;;;22.88;36.34;99917.47;5069805;28;8871;-76
2022/07/19 01:40:25;;;;;;;;;11.00;10.00;;;;;22.88;36.80;99923.63;5070330;28;8886;-75
2022/07/19 01:42:54;;;;;;;;;13.80;12.00;;;;;22.88;35.40;99920.13;5086846;28;8948;-77
2022/07/19 01:45:22;;;;;;;;;11.20;10.80;;;;;22.90;36.13;99920.91;5087039;28;9109;-77
2022/07/19 01:47:51;;;;;;;;;11.00;10.60;;;;;22.89;36.44;99914.75;5084932;28;8817;-77
2022/07/19 01:50:19;;;;;;;;;12.00;11.00;;;;;22.89;36.64;99921.84;5108314;28;8942;-78
2022/07/19 01:52:48;;;;;;;;;11.60;11.00;;;;;22.88;35.19;99922.78;5113168;28;8875;-75
2022/07/19 01:55:20;;;;;;;;;10.40;10.40;;;;;22.85;35.96;99923.75;5102433;28;8957;-75
2022/07/19 01:57:50;;;;;;;;;10.40;10.40;;;;;22.85;37.00;99923.75;5090680;28;8875;-76
2022/07/19 02:00:19;;;;;;;;;11.20;11.20;;;;;22.82;36.50;99929.25;5073318;28;8852;-78
2022/07/19 02:02:48;;;;;;;;;10.80;10.80;;;;;22.78;35.75;99931.16;5092061;28;8867;-76
2022/07/19 02:05:16;;;;;;;;;12.60;12.00;;;;;22.76;35.23;99926.88;5086535;28;8840;-76
2022/07/19 02:07:47;;;;;;;;;13.00;12.00;;;;;22.73;36.98;99927.00;5074994;28;8840;-77
2022/07/19 02:10:17;;;;;;;;;12.40;12.40;;;;;22.74;36.91;99926.03;5094084;28;8978;-76
2022/07/19 02:12:45;;;;;;;;;12.00;11.60;;;;;22.72;37.41;99928.78;5073123;28;8861;-78
2022/07/19 02:15:15;;;;;;;;;13.80;11.00;;;;;22.70;36.51;99929.78;5072340;28;8849;-76
2022/07/19 02:17:44;;;;;;;;;10.80;10.40;;;;;22.54;37.68;99922.47;5088762;28;8845;-77
2022/07/19 02:20:13;;;;;;;;;13.80;13.20;;;;;22.52;38.08;99924.34;5070243;28;8818;-78
2022/07/19 02:22:42;;;;;;;;;11.00;11.00;;;;;22.54;38.71;99926.94;5071559;28;8864;-76
2022/07/19 02:25:12;;;;;;;;;13.80;13.80;;;;;22.54;38.93;99921.63;5067604;28;8859;-74
2022/07/19 02:27:40;;;;;;;;;10.20;9.40;;;;;22.45;38.19;99914.91;5051757;28;8974;-77
2022/07/19 02:30:11;;;;;;;;;13.80;13.00;;;;;22.46;38.80;99916.66;5047834;28;8962;-76
2022/07/19 02:32:41;;;;;;;;;13.40;12.40;;;;;22.45;38.72;99922.88;5031255;28;8898;-76
2022/07/19 02:35:12;;;;;;;;;12.80;11.60;;;;;22.43;38.60;99924.75;5038247;28;8871;-77
2022/07/19 02:37:41;;;;;;;;;10.00;10.00;;;;;22.41;38.62;99917.78;5047943;28;8875;-77
2022/07/19 02:40:10;;;;;;;;;11.40;11.40;;;;;22.38;37.57;99924.97;5044243;28;8856;-78
2022/07/19 02:42:39;;;;;;;;;12.20;12.00;;;;;22.36;37.50;99917.97;5027904;28;8941;-78
2022/07/19 02:45:08;;;;;;;;;11.60;11.40;;;;;22.33;37.13;99916.31;5011659;28;8982;-77
2022/07/19 02:47:38;;;;;;;;;12.60;11.20;;;;;22.30;37.31;99924.41;5031056;28;8874;-77
2022/07/19 02:50:09;;;;;;;;;12.60;12.20;;;;;22.29;37.57;99922.69;5029731;28;8845;-77
2022/07/19 02:52:37;;;;;;;;;13.20;11.60;;;;;22.27;37.43;99929.88;5047679;28;8991;-78
2022/07/19 02:55:07;;;;;;;;;13.00;13.00;;;;;22.27;37.96;99926.31;5014208;28;8857;-77
2022/07/19 02:57:35;;;;;;;;;15.00;13.40;;;;;22.26;37.71;99933.44;5050363;28;8837;-78
2022/07/19 03:00:06;;;;;;;;;10.00;10.00;;;;;22.19;37.27;99926.63;5057139;28;8951;-77
2022/07/19 03:02:35;;;;;;;;;12.60;11.80;;;;;22.16;36.91;99926.78;5069447;28;8870;-76
2022/07/19 03:05:04;;;;;;;;;12.60;12.60;;;;;22.15;37.18;99928.53;5052575;28;8842;-76
2022/07/19 03:07:34;;;;;;;;;14.20;14.20;;;;;22.18;37.32;99928.41;5064600;28;8887;-77
2022/07/19 03:10:06;;;;;;;;;12.60;12.60;;;;;22.18;37.38;99924.91;5065377;28;9649;-79
2022/07/19 03:12:35;;;;;;;;;11.40;10.40;;;;;22.16;36.86;99921.47;5048490;28;8903;-76
2022/07/19 03:15:05;;;;;;;;;12.20;12.00;;;;;22.17;37.22;99923.16;5030711;28;9003;-76
2022/07/19 03:17:33;;;;;;;;;10.60;10.60;;;;;22.17;37.86;99924.06;5048317;28;8864;-78
2022/07/19 03:20:02;;;;;;;;;13.20;12.40;;;;;22.12;37.71;99922.53;5049273;28;8897;-75
2022/07/19 03:22:31;;;;;;;;;12.60;11.00;;;;;22.14;37.93;99926.84;5048681;28;8845;-77
2022/07/19 03:25:01;;;;;;;;;14.00;12.80;;;;;22.15;38.00;99923.22;5050720;28;8842;-78
2022/07/19 03:27:30;;;;;;;;;13.40;13.40;;;;;22.16;37.63;99917.00;5069689;28;8870;-75
2022/07/19 03:29:58;;;;;;;;;13.00;12.00;;;;;22.20;37.93;99928.38;5068110;28;8839;-77
2022/07/19 03:32:27;;;;;;;;;24.25;23.25;;;;;22.23;38.23;99930.00;5085080;28;8850;-79
2022/07/19 03:34:55;;;;;;;;;58.25;47.50;;;;;22.23;38.38;99930.00;5078048;28;8858;-76
2022/07/19 03:37:24;;;;;;;;;44.00;36.00;;;;;22.26;38.58;99924.63;5047809;28;8858;-78
2022/07/19 03:39:53;;;;;;;;;18.00;17.00;;;;;22.31;38.06;99930.59;5102125;28;8841;-78
2022/07/19 03:42:23;;;;;;;;;15.20;13.60;;;;;22.36;37.53;99936.56;5091127;28;9031;-77
2022/07/19 03:44:51;;;;;;;;;13.20;13.20;;;;;22.37;37.93;99939.16;5091615;28;8841;-74
2022/07/19 03:47:20;;;;;;;;;13.20;13.20;;;;;22.35;38.13;99948.13;5091448;28;8856;-76
2022/07/19 03:49:48;;;;;;;;;14.60;14.20;;;;;22.36;38.29;99948.09;5090109;28;8857;-76
2022/07/19 03:52:18;;;;;;;;;16.80;15.20;;;;;22.42;38.46;99949.59;5108018;28;8868;-76
2022/07/19 03:54:46;;;;;;;;;15.20;14.00;;;;;22.48;38.70;99952.00;5105343;28;8824;-76
2022/07/19 03:57:15;;;;;;;;;16.00;14.40;;;;;22.50;38.45;99960.75;5089872;28;8937;-75
2022/07/19 03:59:45;;;;;;;;;22.75;22.00;;;;;22.47;38.42;99962.69;5089045;28;8840;-75
2022/07/19 04:02:14;;;;;;;;;18.40;18.20;;;;;22.53;39.29;99950.00;5106663;28;8917;-75
2022/07/19 04:04:43;;;;;;;;;16.75;16.75;;;;;22.61;39.54;99955.00;5089843;28;9610;-76
2022/07/19 04:07:11;;;;;;;;;18.75;17.75;;;;;22.69;39.55;99958.16;5107001;28;8839;-78
2022/07/19 04:09:40;;;;;;;;;15.25;15.25;;;;;22.70;38.28;99951.94;5072494;28;8855;-77
2022/07/19 04:12:09;;;;;;;;;16.00;16.00;;;;;22.69;39.12;99955.50;5071208;28;8855;-76
2022/07/19 04:14:37;;;;;;;;;45.00;36.50;;;;;22.75;39.57;99954.38;5054558;28;8859;-76
2022/07/19 04:17:08;;;;;;;;;36.25;32.00;;;;;22.87;39.60;99955.63;5106051;28;8855;-78
2022/07/19 04:19:36;;;;;;;;;16.25;15.25;;;;;23.01;39.44;99958.53;5106507;28;8905;-76
2022/07/19 04:22:05;;;;;;;;;18.40;17.40;;;;;23.05;39.18;99956.63;5106010;28;8840;-77
2022/07/19 04:24:34;;;;;;;;;15.80;15.00;;;;;23.06;38.22;99961.00;5085421;28;9569;-76
2022/07/19 04:27:02;;;;;;;;;13.50;12.50;;;;;22.96;38.36;99960.53;5052104;28;8877;-76
2022/07/19 04:29:31;;;;;;;;;16.00;16.00;;;;;22.88;37.06;99960.00;5067783;28;8846;-76
2022/07/19 04:31:59;;;;;;;;;15.80;15.60;;;;;22.92;36.48;99957.13;5051063;28;8856;-77
2022/07/19 04:34:30;;;;;;;;;17.60;14.60;;;;;22.95;36.91;99957.00;5065004;28;8828;-76
2022/07/19 04:36:58;;;;;;;;;17.75;16.75;;;;;22.90;37.57;99955.50;5065509;28;8873;-78
2022/07/19 04:39:27;;;;;;;;;28.25;23.75;;;;;22.78;38.30;99959.56;5049006;28;8856;-77
2022/07/19 04:41:55;;;;;;;;;26.25;24.75;;;;;22.71;39.21;99960.75;5067509;28;8845;-77
2022/07/19 04:44:24;;;;;;;;;16.20;16.20;;;;;22.65;37.13;99958.38;5085762;28;8989;-78
2022/07/19 04:46:52;;;;;;;;;68.75;55.00;;;;;22.66;37.32;99963.59;5084104;28;8985;-76
2022/07/19 04:49:21;;;;;;;;;17.40;16.60;;;;;22.72;36.92;99970.44;5085956;28;9545;-77
2022/07/19 04:51:51;;;;;;;;;16.20;16.20;;;;;22.93;36.24;99968.63;5068407;28;8962;-78
2022/07/19 04:54:20;;;;;;;;;16.00;15.00;;;;;23.05;36.29;99970.78;5052058;28;8878;-74
2022/07/19 04:56:48;;;;;;;;;17.80;17.40;;;;;23.16;36.06;99964.97;5051696;28;8837;-76
2022/07/19 04:59:17;;;;;;;;;13.20;13.20;;;;;23.29;35.51;99968.81;5103413;28;8998;-76
2022/07/19 05:01:46;;;;;;;;;12.60;12.60;;;;;23.50;35.62;99958.94;5068504;28;8834;-76
2022/07/19 05:04:20;;;;;;;;;15.20;14.20;;;;;23.68;35.42;99966.97;5107028;27;8973;-75
2022/07/19 05:06:51;;;;;;;;;12.80;12.60;;;;;23.77;34.57;99969.22;5088205;28;8891;-76
2022/07/19 05:09:21;;;;;;;;;15.60;15.20;;;;;23.77;34.28;99976.34;5088564;28;8965;-75
2022/07/19 05:11:49;;;;;;;;;12.20;12.20;;;;;23.83;34.18;99970.75;5068123;28;8862;-76
2022/07/19 05:14:18;;;;;;;;;15.80;15.80;;;;;23.90;34.29;99973.03;5102114;28;9033;-77
2022/07/19 05:16:49;;;;;;;;;14.20;13.00;;;;;24.07;34.50;99972.19;5085004;28;8982;-76
2022/07/19 05:19:18;;;;;;;;;14.80;13.80;;;;;24.30;33.97;99972.84;5035520;28;8865;-77
2022/07/19 05:21:47;;;;;;;;;13.60;13.00;;;;;24.51;33.53;99970.88;5083679;28;8846;-78
2022/07/19 05:24:15;;;;;;;;;12.60;12.60;;;;;24.70;33.14;99971.69;5085351;28;8849;-77
2022/07/19 05:26:45;;;;;;;;;14.40;14.40;;;;;24.82;32.96;99977.31;5037427;28;9019;-75
2022/07/19 05:29:14;;;;;;;;;12.80;12.00;;;;;24.81;32.97;99978.28;5089048;28;8842;-75
2022/07/19 05:31:42;;;;;;;;;12.60;12.60;;;;;24.83;32.96;99966.56;5077906;28;8849;-77
2022/07/19 05:34:11;;;;;;;;;9.20;8.80;;;;;25.00;32.99;99971.00;5055893;28;8838;-77
2022/07/19 05:36:40;;;;;;;;;14.20;13.20;;;;;25.17;32.51;99975.44;5087174;28;8885;-77
2022/07/19 05:39:09;;;;;;;;;12.60;12.60;;;;;25.32;32.92;99973.78;5088381;28;8872;-76
2022/07/19 05:41:37;;;;;;;;;12.80;11.60;;;;;25.41;32.38;99970.59;5058464;28;8862;-75
2022/07/19 05:44:08;;;;;;;;;11.80;11.80;;;;;25.48;32.79;99980.00;5055237;28;8850;-78
2022/07/19 05:46:40;;;;;;;;;13.00;12.20;;;;;25.60;32.89;99974.94;5075505;28;9609;-75
2022/07/19 05:49:11;;;;;;;;;12.20;12.00;;;;;25.74;32.80;99976.81;5100883;28;8888;-76
2022/07/19 05:51:40;;;;;;;;;20.25;20.25;;;;;25.64;32.44;99977.34;5102466;28;8886;-76
2022/07/19 05:54:09;;;;;;;;;19.75;18.75;;;;;25.63;31.84;99983.63;5126362;27;8852;-76
2022/07/19 05:56:38;;;;;;;;;19.40;17.60;;;;;25.49;31.70;99981.72;5108416;28;8853;-77
2022/07/19 05:59:08;;;;;;;;;19.00;17.25;;;;;25.44;32.02;99982.91;5109215;28;8988;-76
2022/07/19 06:01:37;;;;;;;;;15.40;14.80;;;;;25.51;32.09;99980.78;5107517;28;8977;-77
2022/07/19 06:04:08;;;;;;;;;15.00;12.60;;;;;25.68;32.27;99989.56;5091719;27;8856;-76
2022/07/19 06:06:36;;;;;;;;;17.60;15.00;;;;;25.74;31.66;99977.66;5091543;28;8865;-76
2022/07/19 06:09:07;;;;;;;;;12.20;12.00;;;;;25.62;31.90;99981.06;5098884;28;8879;-75
2022/07/19 06:11:36;;;;;;;;;13.00;13.00;;;;;25.72;32.29;99979.56;5105034;27;8821;-77
2022/07/19 06:14:06;;;;;;;;;16.00;14.80;;;;;25.74;31.71;99983.00;5092986;28;9017;-76
2022/07/19 06:16:38;;;;;;;;;13.20;12.00;;;;;25.40;31.91;99984.91;5109496;28;8845;-76
2022/07/19 06:19:07;;;;;;;;;10.20;9.60;;;;;25.68;32.31;99992.22;5105629;28;8868;-76
2022/07/19 06:21:35;;;;;;;;;15.20;14.40;;;;;25.91;31.58;99989.22;5022543;28;8848;-75
2022/07/19 06:24:05;;;;;;;;;15.40;14.40;;;;;25.89;31.44;99983.97;5072277;28;8903;-76
2022/07/19 06:26:34;;;;;;;;;15.00;14.00;;;;;25.91;31.50;99986.53;5095096;28;8862;-75
2022/07/19 06:29:03;;;;;;;;;13.80;12.60;;;;;26.05;31.41;99990.19;5110160;28;8852;-68
2022/07/19 06:31:32;;;;;;;;;10.80;10.80;;;;;26.08;31.85;99990.97;5110624;28;8867;-69
2022/07/19 06:34:02;;;;;;;;;12.80;12.80;;;;;26.22;31.78;99993.69;5110055;28;8853;-66
2022/07/19 06:36:38;;;;;;;;;12.80;12.20;;;;;26.35;31.52;99999.16;5109974;28;8895;-66
2022/07/19 06:39:06;;;;;;;;;16.60;13.60;;;;;26.09;31.95;99990.00;5108142;28;9595;-80
2022/07/19 06:41:35;;;;;;;;;15.80;13.00;;;;;26.37;31.52;99990.13;5110680;28;8913;-78
2022/07/19 06:44:12;;;;;;;;;13.60;13.60;;;;;26.51;31.72;99991.97;5091114;28;8851;-78
2022/07/19 06:46:40;;;;;;;;;11.00;10.00;;;;;26.71;31.18;99997.97;5090383;28;8837;-81
2022/07/19 06:49:10;;;;;;;;;18.00;16.60;;;;;26.72;31.41;99989.84;5072077;28;8875;-78
2022/07/19 06:51:39;;;;;;;;;16.80;15.40;;;;;26.95;30.84;99996.47;5055030;28;8855;-79
2022/07/19 06:54:08;;;;;;;;;15.20;15.20;;;;;27.19;30.43;99994.09;5088955;28;8835;-78
2022/07/19 06:56:36;;;;;;;;;16.80;14.20;;;;;27.37;30.44;99999.28;5089360;28;9021;-80
2022/07/19 06:59:05;;;;;;;;;15.80;13.80;;;;;27.21;30.50;100000.22;5038423;28;9002;-79
2022/07/19 07:01:33;;;;;;;;;10.60;10.60;;;;;27.10;30.28;99997.34;5091075;28;8863;-79
2022/07/19 07:04:02;;;;;;;;;14.40;12.80;;;;;27.38;30.07;99996.50;5072440;28;9578;-78
2022/07/19 07:06:32;;;;;;;;;16.60;15.00;;;;;27.57;30.05;99993.50;5076154;28;8847;-79
2022/07/19 07:09:02;;;;;;;;;16.20;14.60;;;;;27.78;29.22;99991.25;5095433;28;8966;-80
2022/07/19 07:11:31;;;;;;;;;13.60;13.60;;;;;28.03;29.21;99994.19;5094497;28;8855;-80
2022/07/19 07:14:01;;;;;;;;;15.00;13.80;;;;;28.27;28.96;99997.06;5062639;28;8844;-79
2022/07/19 07:16:30;;;;;;;;;20.75;20.75;;;;;28.47;28.54;99999.28;5039253;28;8867;-79
2022/07/19 07:18:58;;;;;;;;;17.00;15.50;;;;;28.65;28.26;99997.16;5079331;28;8839;-77
2022/07/19 07:21:27;;;;;;;;;21.75;21.25;;;;;28.84;27.53;99995.91;5074621;28;8848;-77
2022/07/19 07:23:57;;;;;;;;;21.00;20.50;;;;;29.03;27.75;99998.16;5091370;28;8839;-77
2022/07/19 07:26:25;;;;;;;;;23.25;23.25;;;;;29.23;27.87;99994.97;5093841;28;8851;-78
2022/07/19 07:28:54;;;;;;;;;17.50;15.75;;;;;29.38;27.48;99998.38;5092745;28;8859;-76
2022/07/19 07:31:23;;;;;;;;;14.75;14.00;;;;;29.51;26.36;99995.69;5058433;28;8855;-80
2022/07/19 07:33:51;;;;;;;;;12.75;12.50;;;;;29.58;26.97;100001.44;5074631;28;8844;-79
2022/07/19 07:36:20;;;;;;;;;14.75;14.25;;;;;29.61;27.15;99996.72;5081648;28;8855;-77
2022/07/19 07:38:49;;;;;;;;;14.25;14.25;;;;;29.77;27.37;99993.78;5082068;28;8867;-76
2022/07/19 07:41:19;;;;;;;;;15.50;14.50;;;;;29.74;27.38;99996.72;5079997;28;8955;-78
2022/07/19 07:44:07;;;;;;;;;16.25;15.75;;;;;29.80;27.33;99998.94;5112722;28;8856;-76
2022/07/19 07:46:36;;;;;;;;;20.00;20.00;;;;;29.84;27.25;99999.59;5110671;28;8859;-78
2022/07/19 07:49:04;;;;;;;;;26.00;20.50;;;;;29.93;27.50;99993.53;5092882;28;8916;-77
2022/07/19 07:51:35;;;;;;;;;17.00;16.00;;;;;30.03;27.22;99997.22;5106108;28;8841;-76
2022/07/19 07:54:13;;;;;;;;;19.50;18.25;;;;;30.17;27.06;100000.72;5110992;28;8957;-80
2022/07/19 07:56:45;;;;;;;;;14.75;13.75;;;;;30.21;27.16;99991.44;5094487;28;8836;-79
2022/07/19 07:59:14;;;;;;;;;12.50;12.50;;;;;30.34;26.60;99994.09;5095040;28;8860;-78
2022/07/19 08:01:44;;;;;;;;;14.50;13.25;;;;;30.39;25.85;99989.22;5077696;28;8982;-78
2022/07/19 08:04:13;;;;;;;;;16.50;15.50;;;;;30.49;26.95;99992.91;5113136;28;8836;-77
2022/07/19 08:06:41;;;;;;;;;15.00;15.00;;;;;29.84;27.76;99991.50;5093913;28;8839;-78
2022/07/19 08:09:10;;;;;;;;;14.75;14.25;;;;;29.99;27.36;99998.44;5076308;28;8852;-78
2022/07/19 08:11:39;;;;;;;;;18.25;16.50;;;;;30.12;27.07;99990.31;5094622;28;8907;-76
2022/07/19 08:14:09;;;;;;;;;16.25;16.25;;;;;30.23;27.22;99994.91;5096234;28;8839;-80
2022/07/19 08:16:38;;;;;;;;;15.00;14.50;;;;;30.37;27.09;99991.19;5088999;28;8833;-80
2022/07/19 08:19:06;;;;;;;;;16.00;15.75;;;;;30.35;27.33;99993.97;5073709;28;8842;-80
2022/07/19 08:21:35;;;;;;;;;17.25;16.00;;;;;30.40;26.95;99989.13;5074402;28;8951;-81
2022/07/19 08:24:04;;;;;;;;;17.25;15.75;;;;;30.12;28.04;99993.00;5008878;28;8857;-77
2022/07/19 08:26:40;;;;;;;;;17.00;15.75;;;;;30.37;27.49;99994.72;5088195;28;8942;-75
2022/07/19 08:29:10;;;;;;;;;18.25;18.25;;;;;30.45;27.54;99980.69;5088075;28;8844;-77
2022/07/19 08:31:39;;;;;;;;;14.75;14.00;;;;;30.53;27.10;99989.03;5090776;28;8963;-78
2022/07/19 08:34:08;;;;;;;;;13.25;13.25;;;;;30.69;27.06;99992.25;5072088;28;8866;-75
2022/07/19 08:36:37;;;;;;;;;16.75;16.25;;;;;30.15;27.31;99990.06;5089863;28;8839;-78
2022/07/19 08:39:05;;;;;;;;;15.75;15.75;;;;;30.37;27.38;99983.97;5090580;28;8844;-77
2022/07/19 08:41:35;;;;;;;;;13.50;13.50;;;;;30.55;27.10;99975.44;5074035;28;8924;-78
2022/07/19 08:44:05;;;;;;;;;13.75;13.25;;;;;30.67;27.10;99991.50;5073082;28;8851;-77
2022/07/19 08:46:35;;;;;;;;;15.75;14.50;;;;;30.54;26.62;99979.97;5089161;28;8840;-79
2022/07/19 08:49:05;;;;;;;;;15.50;14.50;;;;;30.68;25.14;99974.38;5089870;28;9052;-76
2022/07/19 08:51:34;;;;;;;;;10.60;10.60;;;;;30.73;25.52;99987.47;5072947;28;8878;-78
2022/07/19 08:54:04;;;;;;;;;12.00;12.00;;;;;30.89;25.75;99979.94;5088252;28;8870;-77
2022/07/19 08:59:19;;;;;;;;;9.00;8.00;;;;;31.01;24.04;99980.81;5088372;28;8866;-76
2022/07/19 09:01:49;;;;;;;;;9.20;9.20;;;;;31.07;23.96;99983.03;5074221;28;8822;-76
2022/07/19 09:04:20;;;;;;;;;5.00;4.20;;;;;31.07;22.68;99972.25;5073443;28;8853;-77
2022/07/19 09:06:51;;;;;;;;;7.00;7.00;;;;;31.15;22.10;99976.16;5072700;28;8942;-77
2022/07/19 09:09:22;;;;;;;;;6.60;6.60;;;;;31.15;22.04;99977.03;5070176;28;9542;-76
2022/07/19 09:11:53;;;;;;;;;6.20;6.20;;;;;31.23;21.64;99971.91;5056591;28;8846;-76
2022/07/19 09:14:24;;;;;;;;;9.20;9.00;;;;;31.36;22.34;99973.59;5041167;28;8956;-77
2022/07/19 09:17:00;;;;;;;;;9.00;8.40;;;;;31.41;22.83;99974.09;5090791;28;8850;-77
2022/07/19 09:19:33;;;;;;;;;7.80;7.80;;;;;31.28;21.57;99974.22;5071545;28;8866;-77
2022/07/19 09:22:04;;;;;;;;;7.40;6.80;;;;;31.32;20.39;99978.38;5070862;28;8859;-76
2022/07/19 09:24:34;;;;;;;;;6.40;6.40;;;;;31.40;20.16;99973.22;5053426;28;8836;-76
2022/07/19 09:27:07;;;;;;;;;5.00;5.00;;;;;31.37;19.95;99972.63;5070126;28;8851;-75
2022/07/19 09:29:37;;;;;;;;;5.20;5.20;;;;;31.49;19.71;99966.25;5069801;28;8851;-76
2022/07/19 09:32:11;;;;;;;;;6.80;6.80;;;;;31.48;20.18;99972.63;5072602;28;8876;-78
2022/07/19 09:34:41;;;;;;;;;6.60;6.00;;;;;31.49;19.71;99971.63;5089801;28;8877;-75
2022/07/19 09:37:15;;;;;;;;;7.40;6.20;;;;;31.56;20.56;99963.94;5072986;28;8853;-78
2022/07/19 09:39:46;;;;;;;;;6.00;6.00;;;;;31.49;20.09;99968.94;5032412;28;9000;-78
2022/07/19 09:42:17;;;;;;;;;5.80;5.40;;;;;31.55;20.23;99963.06;5032989;28;8865;-78
2022/07/19 09:44:47;;;;;;;;;6.80;6.80;;;;;31.65;20.13;99972.13;4984116;28;8898;-79
2022/07/19 09:47:32;;;;;;;;;5.80;5.80;;;;;31.60;19.93;99965.38;5016340;28;8940;-79
2022/07/19 09:50:02;;;;;;;;;7.80;7.80;;;;;31.49;20.25;99960.84;5032426;28;8881;-78
2022/07/19 09:52:31;;;;;;;;;5.40;5.40;;;;;31.43;20.19;99966.72;5032595;28;8865;-76
2022/07/19 09:55:09;;;;;;;;;5.60;5.00;;;;;31.49;20.22;99966.25;5048031;28;9348;-78
2022/07/19 09:57:44;;;;;;;;;9.00;7.80;;;;;31.60;20.54;99965.38;5019451;28;8844;-77
2022/07/19 10:00:14;;;;;;;;;5.20;4.80;;;;;31.62;19.10;99966.13;5052913;28;9136;-79
2022/07/19 10:02:50;;;;;;;;;5.80;5.80;;;;;31.40;19.41;99975.94;5069060;28;8847;-79
2022/07/19 10:05:20;;;;;;;;;5.00;4.60;;;;;31.56;18.73;99958.53;5036146;28;8972;-78
2022/07/19 10:07:50;;;;;;;;;7.40;6.40;;;;;31.64;19.65;99965.00;5069040;28;8820;-78
2022/07/19 10:10:20;;;;;;;;;5.20;5.20;;;;;31.57;18.98;99961.09;5064433;28;8829;-78
2022/07/19 10:12:52;;;;;;;;;5.80;5.80;;;;;31.43;19.11;99956.78;5093144;28;8817;-78
2022/07/19 10:15:21;;;;;;;;;5.80;5.80;;;;;31.37;18.63;99956.44;5094094;28;8864;-78
2022/07/19 10:18:09;;;;;;;;;5.40;5.40;;;;;31.43;18.58;99950.56;5093599;28;8849;-76
2022/07/19 10:20:39;;;;;;;;;5.00;4.80;;;;;31.35;18.08;99950.34;5110319;28;8972;-76
2022/07/19 10:23:08;;;;;;;;;5.00;5.00;;;;;31.32;19.17;99946.03;5111238;28;9422;-76
2022/07/19 10:25:43;;;;;;;;;5.80;4.80;;;;;31.40;18.55;99950.78;5112325;28;8992;-78
2022/07/19 10:28:30;;;;;;;;;7.00;5.40;;;;;31.43;18.45;99945.16;5076830;28;8845;-77
2022/07/19 10:31:25;;;;;;;;;5.00;4.60;;;;;31.35;17.05;99942.25;5069112;28;8846;-79
2022/07/19 10:34:02;;;;;;;;;3.80;3.80;;;;;31.40;18.21;99942.69;5052177;28;8892;-78
2022/07/19 10:36:39;;;;;;;;;4.40;4.40;;;;;31.41;17.88;99944.44;5052566;28;8947;-77
2022/07/19 10:39:30;;;;;;;;;4.80;4.80;;;;;31.51;17.69;99940.03;5052282;28;8831;-78
2022/07/19 10:42:17;;;;;;;;;5.80;5.80;;;;;31.62;17.41;99942.69;5069320;28;9645;-76
2022/07/19 10:45:12;;;;;;;;;5.20;5.00;;;;;31.78;17.93;99939.59;5035657;28;8943;-78
2022/07/19 10:48:08;;;;;;;;;3.80;3.80;;;;;31.96;17.88;99933.66;5052285;28;8984;-79
2022/07/19 10:51:03;;;;;;;;;5.40;5.00;;;;;31.40;17.40;99934.63;5051417;28;8855;-78
2022/07/19 10:54:05;;;;;;;;;9.00;9.00;;;;;31.48;18.19;99937.59;5051434;28;8850;-78
2022/07/19 10:56:41;;;;;;;;;5.40;5.40;;;;;31.75;18.59;99928.22;5051629;28;8969;-76
2022/07/19 10:59:33;;;;;;;;;7.40;7.40;;;;;31.77;18.19;99926.25;5051092;28;9004;-79
2022/07/19 11:02:03;;;;;;;;;6.80;6.80;;;;;31.90;18.20;99926.06;5067017;28;9030;-78
2022/07/19 11:04:52;;;;;;;;;5.20;5.00;;;;;31.90;17.85;99917.97;5092471;28;8947;-77
2022/07/19 11:07:23;;;;;;;;;5.80;5.80;;;;;32.09;17.48;99917.31;5109512;28;9003;-81
2022/07/19 11:09:55;;;;;;;;;4.20;4.20;;;;;32.29;17.85;99918.31;5109118;28;8845;-78
2022/07/19 11:12:27;;;;;;;;;8.40;8.00;;;;;32.50;18.32;99905.66;5090862;28;8839;-78
2022/07/19 11:14:56;;;;;;;;;7.50;6.50;;;;;32.71;18.44;99904.81;5074115;28;8835;-79
2022/07/19 11:17:56;;;;;;;;;8.75;8.50;;;;;32.85;17.83;99898.19;5091058;28;9109;-78
2022/07/19 11:20:26;;;;;;;;;7.00;7.00;;;;;32.96;18.22;99898.94;5090484;28;8879;-79
2022/07/19 11:22:57;;;;;;;;;9.00;9.00;;;;;33.10;17.92;99888.75;5089665;28;8940;-77
2022/07/19 11:25:28;;;;;;;;;7.00;7.00;;;;;33.28;17.87;99894.41;5099314;28;8865;-80
2022/07/19 11:27:59;;;;;;;;;6.50;6.25;;;;;33.43;17.69;99893.00;5110517;28;8855;-79
2022/07/19 11:30:29;;;;;;;;;5.50;5.00;;;;;33.45;17.25;99887.47;5092299;28;9659;-80
2022/07/19 11:33:00;;;;;;;;;6.00;5.75;;;;;33.32;17.01;99893.97;5110912;28;8868;-77
2022/07/19 11:35:30;;;;;;;;;7.50;6.00;;;;;33.44;17.05;99893.84;5126618;27;8934;-79
2022/07/19 11:38:01;;;;;;;;;6.25;5.50;;;;;33.67;17.38;99895.34;5109800;28;8952;-77
2022/07/19 11:40:35;;;;;;;;;5.75;5.00;;;;;33.82;17.12;99889.50;5109426;28;8853;-78
2022/07/19 11:43:08;;;;;;;;;6.75;6.75;;;;;33.71;17.10;99893.22;5070270;28;8842;-78
2022/07/19 11:45:50;;;;;;;;;6.50;5.75;;;;;34.03;16.52;99879.41;5070339;28;8990;-79
2022/07/19 11:48:26;;;;;;;;;6.00;6.00;;;;;34.16;16.52;99877.28;5070717;28;8827;-80